Seagoville's Hourly Summary for Sunday, March 19, 2017
Hour Temp
(f)
RH
(%)
Solar Rad.
(MJ/m2)
Rainfall
(in)
Wind
(mph)
3/19/2017 12:00 AM 63 89 0 0 0.24
3/19/2017 1:00 AM 62 92 0 0 0.88
3/19/2017 2:00 AM 62 93 0 0 0.4
3/19/2017 3:00 AM 61 94 0 0 0.38
3/19/2017 4:00 AM 60 95 0 0 1.65
3/19/2017 5:00 AM 62 92 0 0 4.22
3/19/2017 6:00 AM 64 92 0 0 4.96
3/19/2017 7:00 AM 63 93 0.03 0 5.64
3/19/2017 8:00 AM 64 89 0.48 0 7.53
3/19/2017 9:00 AM 66 85 0.78 0 8.62
3/19/2017 10:00 AM 68 81 0.66 0 8.3
3/19/2017 11:00 AM 70 73 1.15 0 8.43
3/19/2017 12:00 PM 72 66 1.46 0 7.92
3/19/2017 1:00 PM 76 59 2.16 0 8.19
3/19/2017 2:00 PM 78 55 2.33 0 10.81
3/19/2017 3:00 PM 79 53 2.15 0 11.67
3/19/2017 4:00 PM 80 50 1.84 0 11.5
3/19/2017 5:00 PM 79 52 1.23 0 11.01
3/19/2017 6:00 PM 78 54 0.42 0 10.54
3/19/2017 7:00 PM 76 57 0.04 0 7.7
3/19/2017 8:00 PM 72 65 0 0 5.21
3/19/2017 9:00 PM 71 70 0 0 6.02
3/19/2017 10:00 PM 70 68 0 0 7.97
3/19/2017 11:00 PM 70 68 0 0 9.01
Data Summary 69 74 14.73 0.00 6.62